This is the code for the website served at https://ur.gs/
You can not select more than 25 topics Topics must start with a letter or number, can include dashes ('-') and can be up to 35 characters long.
 
 
 

10822 lines
302 KiB

<?xml version='1.0' encoding='UTF-8' standalone='yes' ?>
<gpx version="1.1" creator="OsmAnd~" xmlns="http://www.topografix.com/GPX/1/1" xmlns:xsi="http://www.w3.org/2001/XMLSchema-instance" xsi:schemaLocation="http://www.topografix.com/GPX/1/1 http://www.topografix.com/GPX/1/1/gpx.xsd">
<trk>
<trkseg>
<trkpt lat="60.0816096" lon="-1.3313152">
<ele>121.51</ele>
<time>2018-08-16T18:06:05Z</time>
<hdop>31</hdop>
</trkpt>
<trkpt lat="60.081606" lon="-1.3312724">
<ele>67.51</ele>
<time>2018-08-16T18:06:11Z</time>
<hdop>22</hdop>
</trkpt>
<trkpt lat="60.0816023" lon="-1.3312671">
<ele>58.51</ele>
<time>2018-08-16T18:06:17Z</time>
<hdop>15</hdop>
</trkpt>
<trkpt lat="60.0816007" lon="-1.3312629">
<ele>51.51</ele>
<time>2018-08-16T18:06:23Z</time>
<hdop>13</hdop>
</trkpt>
<trkpt lat="60.0816009" lon="-1.3312629">
<ele>51.51</ele>
<time>2018-08-16T18:06:28Z</time>
<hdop>13</hdop>
</trkpt>
<trkpt lat="60.0815931" lon="-1.3312459">
<ele>24.51</ele>
<time>2018-08-16T18:06:34Z</time>
<hdop>5</hdop>
</trkpt>
<trkpt lat="60.0816191" lon="-1.3312658">
<ele>6.51</ele>
<time>2018-08-16T18:06:40Z</time>
<hdop>3</hdop>
</trkpt>
<trkpt lat="60.0816128" lon="-1.331266">
<ele>3.51</ele>
<time>2018-08-16T18:06:45Z</time>
<hdop>3</hdop>
</trkpt>
<trkpt lat="60.081605" lon="-1.3312442">
<ele>3.51</ele>
<time>2018-08-16T18:06:51Z</time>
<hdop>3</hdop>
</trkpt>
<trkpt lat="60.0816073" lon="-1.3312582">
<ele>1.51</ele>
<time>2018-08-16T18:07:23Z</time>
<hdop>14</hdop>
</trkpt>
<trkpt lat="60.0816176" lon="-1.3312413">
<ele>0.51</ele>
<time>2018-08-16T18:07:29Z</time>
<hdop>3</hdop>
<extensions>
<speed>0.27</speed>
</extensions>
</trkpt>
<trkpt lat="60.0815852" lon="-1.3311973">
<ele>-2.49</ele>
<time>2018-08-16T18:07:35Z</time>
<hdop>3</hdop>
<extensions>
<speed>1.21</speed>
</extensions>
</trkpt>
<trkpt lat="60.081559" lon="-1.3312393">
<ele>-1.49</ele>
<time>2018-08-16T18:07:40Z</time>
<hdop>3</hdop>
<extensions>
<speed>0.82</speed>
</extensions>
</trkpt>
<trkpt lat="60.0816103" lon="-1.3312318">
<ele>-0.49</ele>
<time>2018-08-16T18:07:46Z</time>
<hdop>3</hdop>
<extensions>
<speed>1.61</speed>
</extensions>
</trkpt>
<trkpt lat="60.0816419" lon="-1.3312368">
<ele>1.51</ele>
<time>2018-08-16T18:07:52Z</time>
<hdop>3</hdop>
</trkpt>
<trkpt lat="60.0816489" lon="-1.33123">
<ele>4.51</ele>
<time>2018-08-16T18:07:57Z</time>
<hdop>3</hdop>
</trkpt>
<trkpt lat="60.0816247" lon="-1.3312212">
<ele>4.51</ele>
<time>2018-08-16T18:08:02Z</time>
<hdop>3</hdop>
<extensions>
<speed>0.93</speed>
</extensions>
</trkpt>
<trkpt lat="60.0816241" lon="-1.3312288">
<ele>3.51</ele>
<time>2018-08-16T18:08:08Z</time>
<hdop>3</hdop>
</trkpt>
<trkpt lat="60.0816106" lon="-1.3312084">
<ele>4.51</ele>
<time>2018-08-16T18:08:13Z</time>
<hdop>3</hdop>
<extensions>
<speed>0.96</speed>
</extensions>
</trkpt>
<trkpt lat="60.0815831" lon="-1.3312154">
<ele>4.51</ele>
<time>2018-08-16T18:08:19Z</time>
<hdop>3</hdop>
</trkpt>
<trkpt lat="60.0816183" lon="-1.3312226">
<ele>4.51</ele>
<time>2018-08-16T18:08:25Z</time>
<hdop>3</hdop>
<extensions>
<speed>0.88</speed>
</extensions>
</trkpt>
<trkpt lat="60.0815908" lon="-1.3312298">
<ele>4.51</ele>
<time>2018-08-16T18:08:31Z</time>
<hdop>3</hdop>
<extensions>
<speed>1.35</speed>
</extensions>
</trkpt>
<trkpt lat="60.0815772" lon="-1.3312178">
<ele>4.51</ele>
<time>2018-08-16T18:08:36Z</time>
<hdop>3</hdop>
<extensions>
<speed>0.41</speed>
</extensions>
</trkpt>
<trkpt lat="60.0816127" lon="-1.3312313">
<ele>4.51</ele>
<time>2018-08-16T18:08:42Z</time>
<hdop>3</hdop>
<extensions>
<speed>1.11</speed>
</extensions>
</trkpt>
<trkpt lat="60.0816221" lon="-1.3312242">
<ele>4.51</ele>
<time>2018-08-16T18:08:48Z</time>
<hdop>3</hdop>
</trkpt>
<trkpt lat="60.0816224" lon="-1.3312333">
<ele>4.51</ele>
<time>2018-08-16T18:08:53Z</time>
<hdop>3</hdop>
</trkpt>
<trkpt lat="60.0816239" lon="-1.3312396">
<ele>4.51</ele>
<time>2018-08-16T18:08:58Z</time>
<hdop>3</hdop>
</trkpt>
<trkpt lat="60.0816238" lon="-1.3312397">
<ele>4.51</ele>
<time>2018-08-16T18:09:04Z</time>
<hdop>3</hdop>
</trkpt>
<trkpt lat="60.0816234" lon="-1.3312398">
<ele>4.51</ele>
<time>2018-08-16T18:09:10Z</time>
<hdop>3</hdop>
</trkpt>
<trkpt lat="60.0816233" lon="-1.3312397">
<ele>4.51</ele>
<time>2018-08-16T18:09:15Z</time>
<hdop>3</hdop>
</trkpt>
<trkpt lat="60.0816232" lon="-1.3312397">
<ele>4.51</ele>
<time>2018-08-16T18:09:21Z</time>
<hdop>3</hdop>
</trkpt>
<trkpt lat="60.0816233" lon="-1.3312397">
<ele>4.51</ele>
<time>2018-08-16T18:09:26Z</time>
<hdop>3</hdop>
</trkpt>
<trkpt lat="60.0815821" lon="-1.3312006">
<ele>4.51</ele>
<time>2018-08-16T18:09:32Z</time>
<hdop>3</hdop>
</trkpt>
<trkpt lat="60.0815826" lon="-1.3311951">
<ele>3.51</ele>
<time>2018-08-16T18:09:38Z</time>
<hdop>3</hdop>
</trkpt>
<trkpt lat="60.0815595" lon="-1.3312337">
<ele>2.51</ele>
<time>2018-08-16T18:09:44Z</time>
<hdop>3</hdop>
</trkpt>
<trkpt lat="60.0815738" lon="-1.3312432">
<ele>1.51</ele>
<time>2018-08-16T18:09:50Z</time>
<hdop>3</hdop>
<extensions>
<speed>0.65</speed>
</extensions>
</trkpt>
<trkpt lat="60.0816195" lon="-1.3312293">
<ele>0.51</ele>
<time>2018-08-16T18:09:55Z</time>
<hdop>3</hdop>
<extensions>
<speed>0.26</speed>
</extensions>
</trkpt>
<trkpt lat="60.081575" lon="-1.3312331">
<ele>2.51</ele>
<time>2018-08-16T18:10:01Z</time>
<hdop>3</hdop>
<extensions>
<speed>0.45</speed>
</extensions>
</trkpt>
<trkpt lat="60.0815682" lon="-1.3312453">
<ele>3.51</ele>
<time>2018-08-16T18:10:07Z</time>
<hdop>3</hdop>
</trkpt>
<trkpt lat="60.0815692" lon="-1.3312329">
<ele>3.51</ele>
<time>2018-08-16T18:10:12Z</time>
<hdop>3</hdop>
<extensions>
<speed>0.2</speed>
</extensions>
</trkpt>
<trkpt lat="60.0815657" lon="-1.3312264">
<ele>3.51</ele>
<time>2018-08-16T18:10:18Z</time>
<hdop>3</hdop>
<extensions>
<speed>0.36</speed>
</extensions>
</trkpt>
<trkpt lat="60.0815597" lon="-1.3312339">
<ele>2.51</ele>
<time>2018-08-16T18:10:24Z</time>
<hdop>3</hdop>
</trkpt>
<trkpt lat="60.0815578" lon="-1.3312332">
<ele>2.51</ele>
<time>2018-08-16T18:10:30Z</time>
<hdop>3</hdop>
</trkpt>
<trkpt lat="60.0815579" lon="-1.3312331">
<ele>2.51</ele>
<time>2018-08-16T18:10:35Z</time>
<hdop>3</hdop>
</trkpt>
<trkpt lat="60.081558" lon="-1.3312331">
<ele>2.51</ele>
<time>2018-08-16T18:10:41Z</time>
<hdop>3</hdop>
</trkpt>
<trkpt lat="60.0815623" lon="-1.3312191">
<ele>0.51</ele>
<time>2018-08-16T18:10:46Z</time>
<hdop>3</hdop>
<extensions>
<speed>0.3</speed>
</extensions>
</trkpt>
<trkpt lat="60.0815682" lon="-1.3312321">
<ele>2.51</ele>
<time>2018-08-16T18:10:52Z</time>
<hdop>3</hdop>
</trkpt>
<trkpt lat="60.0815728" lon="-1.3312322">
<ele>2.51</ele>
<time>2018-08-16T18:10:58Z</time>
<hdop>3</hdop>
</trkpt>
<trkpt lat="60.0815763" lon="-1.3312414">
<ele>3.51</ele>
<time>2018-08-16T18:11:04Z</time>
<hdop>3</hdop>
</trkpt>
<trkpt lat="60.0815712" lon="-1.3312444">
<ele>4.51</ele>
<time>2018-08-16T18:11:10Z</time>
<hdop>3</hdop>
<extensions>
<speed>0.5</speed>
</extensions>
</trkpt>
<trkpt lat="60.081578" lon="-1.331239">
<ele>5.51</ele>
<time>2018-08-16T18:11:16Z</time>
<hdop>3</hdop>
</trkpt>
<trkpt lat="60.0815369" lon="-1.3311213">
<ele>6.51</ele>
<time>2018-08-16T18:11:51Z</time>
<hdop>4</hdop>
</trkpt>
<trkpt lat="60.0815728" lon="-1.3312834">
<ele>-15.49</ele>
<time>2018-08-16T18:11:57Z</time>
<hdop>4</hdop>
</trkpt>
<trkpt lat="60.0815722" lon="-1.3312446">
<ele>-12.49</ele>
<time>2018-08-16T18:12:03Z</time>
<hdop>4</hdop>
</trkpt>
<trkpt lat="60.0815478" lon="-1.3312193">
<ele>-8.49</ele>
<time>2018-08-16T18:12:09Z</time>
<hdop>5</hdop>
<extensions>
<speed>0.45</speed>
</extensions>
</trkpt>
<trkpt lat="60.0815543" lon="-1.331244">
<ele>-5.49</ele>
<time>2018-08-16T18:12:15Z</time>
<hdop>10</hdop>
<extensions>
<speed>0.65</speed>
</extensions>
</trkpt>
<trkpt lat="60.081539" lon="-1.3312456">
<ele>-3.49</ele>
<time>2018-08-16T18:12:21Z</time>
<hdop>4</hdop>
</trkpt>
<trkpt lat="60.0815534" lon="-1.3312414">
<ele>-2.49</ele>
<time>2018-08-16T18:12:26Z</time>
<hdop>4</hdop>
</trkpt>
<trkpt lat="60.0815556" lon="-1.3312359">
<ele>-0.49</ele>
<time>2018-08-16T18:12:32Z</time>
<hdop>4</hdop>
</trkpt>
<trkpt lat="60.0815875" lon="-1.3312195">
<ele>-1.49</ele>
<time>2018-08-16T18:12:37Z</time>
<hdop>3</hdop>
<extensions>
<speed>1.1</speed>
</extensions>
</trkpt>
<trkpt lat="60.0816121" lon="-1.3312122">
<ele>1.51</ele>
<time>2018-08-16T18:12:42Z</time>
<hdop>3</hdop>
</trkpt>
<trkpt lat="60.081606" lon="-1.3312153">
<ele>1.51</ele>
<time>2018-08-16T18:12:47Z</time>
<hdop>3</hdop>
</trkpt>
<trkpt lat="60.0816057" lon="-1.331218">
<ele>2.51</ele>
<time>2018-08-16T18:12:53Z</time>
<hdop>3</hdop>
</trkpt>
<trkpt lat="60.0815852" lon="-1.3312241">
<ele>2.51</ele>
<time>2018-08-16T18:12:59Z</time>
<hdop>3</hdop>
<extensions>
<speed>0.88</speed>
</extensions>
</trkpt>
<trkpt lat="60.0815821" lon="-1.3312362">
<ele>1.51</ele>
<time>2018-08-16T18:13:05Z</time>
<hdop>3</hdop>
</trkpt>
<trkpt lat="60.0815818" lon="-1.3312172">
<ele>1.51</ele>
<time>2018-08-16T18:13:10Z</time>
<hdop>3</hdop>
</trkpt>
<trkpt lat="60.0815561" lon="-1.3312787">
<ele>0.51</ele>
<time>2018-08-16T18:13:16Z</time>
<hdop>3</hdop>
<extensions>
<speed>1.02</speed>
</extensions>
</trkpt>
<trkpt lat="60.0815001" lon="-1.3313229">
<ele>-0.49</ele>
<time>2018-08-16T18:13:21Z</time>
<hdop>3</hdop>
<extensions>
<speed>1.01</speed>
</extensions>
</trkpt>
<trkpt lat="60.0814565" lon="-1.3313375">
<ele>-2.49</ele>
<time>2018-08-16T18:13:26Z</time>
<hdop>3</hdop>
<extensions>
<speed>0.22</speed>
</extensions>
</trkpt>
<trkpt lat="60.0814526" lon="-1.3313515">
<ele>-0.49</ele>
<time>2018-08-16T18:13:32Z</time>
<hdop>3</hdop>
</trkpt>
<trkpt lat="60.0814341" lon="-1.3313464">
<ele>0.51</ele>
<time>2018-08-16T18:13:38Z</time>
<hdop>3</hdop>
<extensions>
<speed>0.47</speed>
</extensions>
</trkpt>
<trkpt lat="60.0814292" lon="-1.3313529">
<ele>0.51</ele>
<time>2018-08-16T18:13:44Z</time>
<hdop>3</hdop>
</trkpt>
<trkpt lat="60.0814177" lon="-1.3313538">
<ele>1.51</ele>
<time>2018-08-16T18:13:49Z</time>
<hdop>3</hdop>
</trkpt>
<trkpt lat="60.0814155" lon="-1.3313554">
<ele>1.51</ele>
<time>2018-08-16T18:13:54Z</time>
<hdop>3</hdop>
</trkpt>
<trkpt lat="60.0814157" lon="-1.331355">
<ele>1.51</ele>
<time>2018-08-16T18:14:00Z</time>
<hdop>3</hdop>
</trkpt>
<trkpt lat="60.0814157" lon="-1.3313552">
<ele>1.51</ele>
<time>2018-08-16T18:14:05Z</time>
<hdop>3</hdop>
</trkpt>
<trkpt lat="60.08142" lon="-1.3313426">
<ele>1.51</ele>
<time>2018-08-16T18:14:10Z</time>
<hdop>3</hdop>
<extensions>
<speed>0.58</speed>
</extensions>
</trkpt>
<trkpt lat="60.0814754" lon="-1.3312725">
<ele>2.51</ele>
<time>2018-08-16T18:14:16Z</time>
<hdop>3</hdop>
<extensions>
<speed>1.08</speed>
</extensions>
</trkpt>
<trkpt lat="60.0814752" lon="-1.3313021">
<ele>3.51</ele>
<time>2018-08-16T18:14:21Z</time>
<hdop>3</hdop>
<extensions>
<speed>1.08</speed>
</extensions>
</trkpt>
<trkpt lat="60.0814357" lon="-1.3313465">
<ele>4.51</ele>
<time>2018-08-16T18:14:26Z</time>
<hdop>3</hdop>
<extensions>
<speed>0.68</speed>
</extensions>
</trkpt>
<trkpt lat="60.0814389" lon="-1.3313701">
<ele>6.51</ele>
<time>2018-08-16T18:14:32Z</time>
<hdop>3</hdop>
</trkpt>
<trkpt lat="60.081433" lon="-1.3313783">
<ele>4.51</ele>
<time>2018-08-16T18:14:37Z</time>
<hdop>3</hdop>
</trkpt>
<trkpt lat="60.0814337" lon="-1.3313759">
<ele>4.51</ele>
<time>2018-08-16T18:14:43Z</time>
<hdop>3</hdop>
</trkpt>
<trkpt lat="60.0814302" lon="-1.3313749">
<ele>4.51</ele>
<time>2018-08-16T18:14:49Z</time>
<hdop>3</hdop>
</trkpt>
<trkpt lat="60.0814273" lon="-1.3313791">
<ele>4.51</ele>
<time>2018-08-16T18:14:54Z</time>
<hdop>3</hdop>
</trkpt>
<trkpt lat="60.0814327" lon="-1.3313811">
<ele>4.51</ele>
<time>2018-08-16T18:15:00Z</time>
<hdop>3</hdop>
</trkpt>
<trkpt lat="60.0814333" lon="-1.3313757">
<ele>4.51</ele>
<time>2018-08-16T18:15:05Z</time>
<hdop>3</hdop>
</trkpt>
<trkpt lat="60.081422" lon="-1.3313688">
<ele>4.51</ele>
<time>2018-08-16T18:15:10Z</time>
<hdop>3</hdop>
<extensions>
<speed>0.31</speed>
</extensions>
</trkpt>
<trkpt lat="60.0814235" lon="-1.3313646">
<ele>4.51</ele>
<time>2018-08-16T18:15:15Z</time>
<hdop>3</hdop>
</trkpt>
<trkpt lat="60.0814248" lon="-1.331355">
<ele>4.51</ele>
<time>2018-08-16T18:15:21Z</time>
<hdop>3</hdop>
</trkpt>
<trkpt lat="60.0814257" lon="-1.3313606">
<ele>5.51</ele>
<time>2018-08-16T18:15:27Z</time>
<hdop>3</hdop>
</trkpt>
<trkpt lat="60.081431" lon="-1.3313453">
<ele>5.51</ele>
<time>2018-08-16T18:15:33Z</time>
<hdop>3</hdop>
<extensions>
<speed>0.15</speed>
</extensions>
</trkpt>
<trkpt lat="60.0814325" lon="-1.33135">
<ele>6.51</ele>
<time>2018-08-16T18:15:39Z</time>
<hdop>3</hdop>
<extensions>
<speed>0.46</speed>
</extensions>
</trkpt>
<trkpt lat="60.0814309" lon="-1.3313457">
<ele>5.51</ele>
<time>2018-08-16T18:15:45Z</time>
<hdop>3</hdop>
</trkpt>
<trkpt lat="60.0814248" lon="-1.3313385">
<ele>4.51</ele>
<time>2018-08-16T18:15:50Z</time>
<hdop>3</hdop>
</trkpt>
<trkpt lat="60.0814244" lon="-1.3313392">
<ele>5.51</ele>
<time>2018-08-16T18:15:55Z</time>
<hdop>3</hdop>
</trkpt>
<trkpt lat="60.081432" lon="-1.3313318">
<ele>5.51</ele>
<time>2018-08-16T18:16:01Z</time>
<hdop>3</hdop>
</trkpt>
<trkpt lat="60.081442" lon="-1.331323">
<ele>5.51</ele>
<time>2018-08-16T18:16:06Z</time>
<hdop>3</hdop>
</trkpt>
<trkpt lat="60.0814411" lon="-1.3313269">
<ele>4.51</ele>
<time>2018-08-16T18:16:12Z</time>
<hdop>3</hdop>
</trkpt>
<trkpt lat="60.0814416" lon="-1.3313272">
<ele>5.51</ele>
<time>2018-08-16T18:16:18Z</time>
<hdop>3</hdop>
</trkpt>
<trkpt lat="60.0814439" lon="-1.3313335">
<ele>5.51</ele>
<time>2018-08-16T18:16:24Z</time>
<hdop>3</hdop>
</trkpt>
<trkpt lat="60.0814379" lon="-1.3313411">
<ele>6.51</ele>
<time>2018-08-16T18:16:30Z</time>
<hdop>3</hdop>
</trkpt>
<trkpt lat="60.0814418" lon="-1.3313483">
<ele>6.51</ele>
<time>2018-08-16T18:16:36Z</time>
<hdop>3</hdop>
</trkpt>
<trkpt lat="60.0814435" lon="-1.3313406">
<ele>7.51</ele>
<time>2018-08-16T18:16:42Z</time>
<hdop>3</hdop>
</trkpt>
<trkpt lat="60.0814405" lon="-1.3313406">
<ele>7.51</ele>
<time>2018-08-16T18:16:47Z</time>
<hdop>3</hdop>
</trkpt>
<trkpt lat="60.0814498" lon="-1.3313575">
<ele>6.51</ele>
<time>2018-08-16T18:16:53Z</time>
<hdop>3</hdop>
</trkpt>
<trkpt lat="60.0814507" lon="-1.3313673">
<ele>6.51</ele>
<time>2018-08-16T18:16:59Z</time>
<hdop>3</hdop>
</trkpt>
<trkpt lat="60.0814584" lon="-1.3313788">
<ele>6.51</ele>
<time>2018-08-16T18:17:05Z</time>
<hdop>3</hdop>
</trkpt>
<trkpt lat="60.0814566" lon="-1.3313661">
<ele>5.51</ele>
<time>2018-08-16T18:17:10Z</time>
<hdop>3</hdop>
</trkpt>
<trkpt lat="60.0814555" lon="-1.3313606">
<ele>5.51</ele>
<time>2018-08-16T18:17:16Z</time>
<hdop>3</hdop>
</trkpt>
<trkpt lat="60.081456" lon="-1.3313542">
<ele>5.51</ele>
<time>2018-08-16T18:17:22Z</time>
<hdop>3</hdop>
</trkpt>
<trkpt lat="60.0814554" lon="-1.3313615">
<ele>4.51</ele>
<time>2018-08-16T18:17:27Z</time>
<hdop>3</hdop>
</trkpt>
<trkpt lat="60.0814376" lon="-1.331362">
<ele>3.51</ele>
<time>2018-08-16T18:17:33Z</time>
<hdop>3</hdop>
</trkpt>
<trkpt lat="60.0814605" lon="-1.3313483">
<ele>3.51</ele>
<time>2018-08-16T18:17:39Z</time>
<hdop>3</hdop>
</trkpt>
<trkpt lat="60.0814582" lon="-1.3313523">
<ele>4.51</ele>
<time>2018-08-16T18:17:45Z</time>
<hdop>3</hdop>
</trkpt>
<trkpt lat="60.0814458" lon="-1.3313573">
<ele>5.51</ele>
<time>2018-08-16T18:17:51Z</time>
<hdop>3</hdop>
</trkpt>
<trkpt lat="60.0814369" lon="-1.3313529">
<ele>6.51</ele>
<time>2018-08-16T18:17:56Z</time>
<hdop>3</hdop>
</trkpt>
<trkpt lat="60.0814365" lon="-1.3313497">
<ele>6.51</ele>
<time>2018-08-16T18:18:02Z</time>
<hdop>3</hdop>
</trkpt>
<trkpt lat="60.0814365" lon="-1.3313495">
<ele>6.51</ele>
<time>2018-08-16T18:18:08Z</time>
<hdop>3</hdop>
</trkpt>
<trkpt lat="60.0814366" lon="-1.3313493">
<ele>6.51</ele>
<time>2018-08-16T18:18:13Z</time>
<hdop>3</hdop>
</trkpt>
<trkpt lat="60.0814365" lon="-1.3313496">
<ele>6.51</ele>
<time>2018-08-16T18:18:19Z</time>
<hdop>3</hdop>
</trkpt>
<trkpt lat="60.0814373" lon="-1.3313523">
<ele>6.51</ele>
<time>2018-08-16T18:18:24Z</time>
<hdop>3</hdop>
</trkpt>
<trkpt lat="60.0814379" lon="-1.3313492">
<ele>5.51</ele>
<time>2018-08-16T18:18:29Z</time>
<hdop>3</hdop>
</trkpt>
<trkpt lat="60.081448" lon="-1.3313374">
<ele>8.51</ele>
<time>2018-08-16T18:18:35Z</time>
<hdop>3</hdop>
</trkpt>
<trkpt lat="60.0814432" lon="-1.3313359">
<ele>8.51</ele>
<time>2018-08-16T18:18:40Z</time>
<hdop>3</hdop>
</trkpt>
<trkpt lat="60.0814406" lon="-1.3313293">
<ele>8.51</ele>
<time>2018-08-16T18:18:45Z</time>
<hdop>3</hdop>
</trkpt>
<trkpt lat="60.0814404" lon="-1.3313291">
<ele>8.51</ele>
<time>2018-08-16T18:18:51Z</time>
<hdop>3</hdop>
</trkpt>
<trkpt lat="60.0814403" lon="-1.3313292">
<ele>8.51</ele>
<time>2018-08-16T18:18:57Z</time>
<hdop>3</hdop>
</trkpt>
<trkpt lat="60.0814374" lon="-1.3313324">
<ele>7.51</ele>
<time>2018-08-16T18:19:02Z</time>
<hdop>3</hdop>
</trkpt>
<trkpt lat="60.0814349" lon="-1.3313393">
<ele>7.51</ele>
<time>2018-08-16T18:19:08Z</time>
<hdop>3</hdop>
</trkpt>
<trkpt lat="60.0814456" lon="-1.3313458">
<ele>7.51</ele>
<time>2018-08-16T18:19:14Z</time>
<hdop>3</hdop>
</trkpt>
<trkpt lat="60.0814457" lon="-1.3313458">
<ele>7.51</ele>
<time>2018-08-16T18:19:20Z</time>
<hdop>3</hdop>
</trkpt>
<trkpt lat="60.0814457" lon="-1.3313459">
<ele>7.51</ele>
<time>2018-08-16T18:19:26Z</time>
<hdop>3</hdop>
</trkpt>
<trkpt lat="60.0814458" lon="-1.331346">
<ele>7.51</ele>
<time>2018-08-16T18:19:31Z</time>
<hdop>3</hdop>
</trkpt>
<trkpt lat="60.0814315" lon="-1.3313438">
<ele>6.51</ele>
<time>2018-08-16T18:19:37Z</time>
<hdop>3</hdop>
<extensions>
<speed>0.15</speed>
</extensions>
</trkpt>
<trkpt lat="60.081429" lon="-1.331339">
<ele>5.51</ele>
<time>2018-08-16T18:19:42Z</time>
<hdop>3</hdop>
</trkpt>
<trkpt lat="60.081437" lon="-1.3313438">
<ele>5.51</ele>
<time>2018-08-16T18:19:48Z</time>
<hdop>3</hdop>
</trkpt>
<trkpt lat="60.0814371" lon="-1.331345">
<ele>5.51</ele>
<time>2018-08-16T18:19:53Z</time>
<hdop>3</hdop>
</trkpt>
<trkpt lat="60.0813938" lon="-1.3313612">
<ele>6.51</ele>
<time>2018-08-16T18:19:59Z</time>
<hdop>3</hdop>
<extensions>
<speed>0.79</speed>
</extensions>
</trkpt>
<trkpt lat="60.0814036" lon="-1.3313742">
<ele>7.51</ele>
<time>2018-08-16T18:20:04Z</time>
<hdop>3</hdop>
<extensions>
<speed>0.46</speed>
</extensions>
</trkpt>
<trkpt lat="60.0813628" lon="-1.3314307">
<ele>4.51</ele>
<time>2018-08-16T18:20:10Z</time>
<hdop>3</hdop>
<extensions>
<speed>1.1</speed>
</extensions>
</trkpt>
<trkpt lat="60.0813344" lon="-1.3315028">
<ele>4.51</ele>
<time>2018-08-16T18:20:16Z</time>
<hdop>3</hdop>
<extensions>
<speed>0.52</speed>
</extensions>
</trkpt>
<trkpt lat="60.0813346" lon="-1.3315296">
<ele>4.51</ele>
<time>2018-08-16T18:20:21Z</time>
<hdop>3</hdop>
</trkpt>
<trkpt lat="60.0813334" lon="-1.3315232">
<ele>4.51</ele>
<time>2018-08-16T18:20:27Z</time>
<hdop>3</hdop>
</trkpt>
<trkpt lat="60.081333" lon="-1.3315226">
<ele>4.51</ele>
<time>2018-08-16T18:20:33Z</time>
<hdop>3</hdop>
</trkpt>
<trkpt lat="60.0813293" lon="-1.3315226">
<ele>4.51</ele>
<time>2018-08-16T18:20:39Z</time>
<hdop>3</hdop>
</trkpt>
<trkpt lat="60.0813292" lon="-1.3315242">
<ele>3.51</ele>
<time>2018-08-16T18:20:44Z</time>
<hdop>3</hdop>
</trkpt>
<trkpt lat="60.0813248" lon="-1.331546">
<ele>4.51</ele>
<time>2018-08-16T18:20:50Z</time>
<hdop>3</hdop>
<extensions>
<speed>0.24</speed>
</extensions>
</trkpt>
<trkpt lat="60.0813209" lon="-1.3315518">
<ele>5.51</ele>
<time>2018-08-16T18:20:56Z</time>
<hdop>3</hdop>
</trkpt>
<trkpt lat="60.0813212" lon="-1.3315551">
<ele>5.51</ele>
<time>2018-08-16T18:21:02Z</time>
<hdop>3</hdop>
<extensions>
<speed>0.41</speed>
</extensions>
</trkpt>
<trkpt lat="60.0813193" lon="-1.3315489">
<ele>5.51</ele>
<time>2018-08-16T18:21:07Z</time>
<hdop>3</hdop>
</trkpt>
<trkpt lat="60.0813195" lon="-1.3315668">
<ele>6.51</ele>
<time>2018-08-16T18:21:13Z</time>
<hdop>3</hdop>
</trkpt>
<trkpt lat="60.0813239" lon="-1.3315557">
<ele>5.51</ele>
<time>2018-08-16T18:21:18Z</time>
<hdop>3</hdop>
</trkpt>
<trkpt lat="60.0813213" lon="-1.3315898">
<ele>4.51</ele>
<time>2018-08-16T18:21:23Z</time>
<hdop>3</hdop>
<extensions>
<speed>0.47</speed>
</extensions>
</trkpt>
<trkpt lat="60.0813329" lon="-1.3316263">
<ele>4.51</ele>
<time>2018-08-16T18:21:29Z</time>
<hdop>3</hdop>
<extensions>
<speed>0.32</speed>
</extensions>
</trkpt>
<trkpt lat="60.0813508" lon="-1.3316542">
<ele>5.51</ele>
<time>2018-08-16T18:21:35Z</time>
<hdop>3</hdop>
<extensions>
<speed>0.35</speed>
</extensions>
</trkpt>
<trkpt lat="60.0813694" lon="-1.331673">
<ele>4.51</ele>
<time>2018-08-16T18:21:40Z</time>
<hdop>3</hdop>
<extensions>
<speed>0.32</speed>
</extensions>
</trkpt>
<trkpt lat="60.0813935" lon="-1.3317049">
<ele>2.51</ele>
<time>2018-08-16T18:21:46Z</time>
<hdop>3</hdop>
<extensions>
<speed>0.25</speed>
</extensions>
</trkpt>
<trkpt lat="60.081406" lon="-1.331737">
<ele>3.51</ele>
<time>2018-08-16T18:21:52Z</time>
<hdop>3</hdop>
<extensions>
<speed>0.19</speed>
</extensions>
</trkpt>
<trkpt lat="60.0814036" lon="-1.3317442">
<ele>3.51</ele>
<time>2018-08-16T18:21:57Z</time>
<hdop>3</hdop>
<extensions>
<speed>0.21</speed>
</extensions>
</trkpt>
<trkpt lat="60.0814136" lon="-1.3317655">
<ele>3.51</ele>
<time>2018-08-16T18:22:03Z</time>
<hdop>3</hdop>
<extensions>
<speed>0.35</speed>
</extensions>
</trkpt>
<trkpt lat="60.0814196" lon="-1.3317685">
<ele>3.51</ele>
<time>2018-08-16T18:22:08Z</time>
<hdop>3</hdop>
<extensions>
<speed>0.41</speed>
</extensions>
</trkpt>
<trkpt lat="60.0814238" lon="-1.3317629">
<ele>3.51</ele>
<time>2018-08-16T18:22:13Z</time>
<hdop>3</hdop>
</trkpt>
<trkpt lat="60.0814127" lon="-1.3317777">
<ele>1.51</ele>
<time>2018-08-16T18:22:19Z</time>
<hdop>3</hdop>
<extensions>
<speed>0.32</speed>
</extensions>
</trkpt>
<trkpt lat="60.0813981" lon="-1.331781">
<ele>1.51</ele>
<time>2018-08-16T18:22:25Z</time>
<hdop>3</hdop>
<extensions>
<speed>0.39</speed>
</extensions>
</trkpt>
<trkpt lat="60.0813736" lon="-1.3318026">
<ele>0.51</ele>
<time>2018-08-16T18:22:31Z</time>
<hdop>3</hdop>
<extensions>
<speed>0.51</speed>
</extensions>
</trkpt>
<trkpt lat="60.0813173" lon="-1.3318197">
<ele>1.51</ele>
<time>2018-08-16T18:22:36Z</time>
<hdop>3</hdop>
<extensions>
<speed>1.06</speed>
</extensions>
</trkpt>
<trkpt lat="60.0812602" lon="-1.3318597">
<ele>1.51</ele>
<time>2018-08-16T18:22:41Z</time>
<hdop>3</hdop>
<extensions>
<speed>1.41</speed>
</extensions>
</trkpt>
<trkpt lat="60.0811978" lon="-1.3319079">
<ele>1.51</ele>
<time>2018-08-16T18:22:47Z</time>
<hdop>3</hdop>
<extensions>
<speed>0.71</speed>
</extensions>
</trkpt>
<trkpt lat="60.0811833" lon="-1.3319214">
<ele>1.51</ele>
<time>2018-08-16T18:22:52Z</time>
<hdop>3</hdop>
<extensions>
<speed>0.28</speed>
</extensions>
</trkpt>
<trkpt lat="60.0811682" lon="-1.3319161">
<ele>1.51</ele>
<time>2018-08-16T18:22:57Z</time>
<hdop>3</hdop>
<extensions>
<speed>0.38</speed>
</extensions>
</trkpt>
<trkpt lat="60.0811593" lon="-1.3319112">
<ele>1.51</ele>
<time>2018-08-16T18:23:03Z</time>
<hdop>3</hdop>
<extensions>
<speed>0.25</speed>
</extensions>
</trkpt>
<trkpt lat="60.0811555" lon="-1.3318956">
<ele>1.51</ele>
<time>2018-08-16T18:23:09Z</time>
<hdop>3</hdop>
</trkpt>
<trkpt lat="60.0811557" lon="-1.3318857">
<ele>1.51</ele>
<time>2018-08-16T18:23:15Z</time>
<hdop>3</hdop>
</trkpt>
<trkpt lat="60.0811532" lon="-1.3318727">
<ele>1.51</ele>
<time>2018-08-16T18:23:21Z</time>
<hdop>3</hdop>
<extensions>
<speed>0.24</speed>
</extensions>
</trkpt>
<trkpt lat="60.0811454" lon="-1.3318815">
<ele>1.51</ele>
<time>2018-08-16T18:23:26Z</time>
<hdop>3</hdop>
</trkpt>
<trkpt lat="60.0811531" lon="-1.3318742">
<ele>2.51</ele>
<time>2018-08-16T18:23:32Z</time>
<hdop>3</hdop>
<extensions>
<speed>0.6</speed>
</extensions>
</trkpt>
<trkpt lat="60.0811657" lon="-1.331855">
<ele>1.51</ele>
<time>2018-08-16T18:23:37Z</time>
<hdop>3</hdop>
<extensions>
<speed>0.22</speed>
</extensions>
</trkpt>
<trkpt lat="60.0811803" lon="-1.3318212">
<ele>1.51</ele>
<time>2018-08-16T18:23:42Z</time>
<hdop>3</hdop>
<extensions>
<speed>0.46</speed>
</extensions>
</trkpt>
<trkpt lat="60.0811991" lon="-1.3318064">
<ele>2.51</ele>
<time>2018-08-16T18:23:48Z</time>
<hdop>3</hdop>
<extensions>
<speed>0.4</speed>
</extensions>
</trkpt>
<trkpt lat="60.0812197" lon="-1.3317855">
<ele>1.51</ele>
<time>2018-08-16T18:23:53Z</time>
<hdop>3</hdop>
<extensions>
<speed>0.42</speed>
</extensions>
</trkpt>
<trkpt lat="60.0812488" lon="-1.3317635">
<ele>2.51</ele>
<time>2018-08-16T18:23:59Z</time>
<hdop>3</hdop>
<extensions>
<speed>0.58</speed>
</extensions>
</trkpt>
<trkpt lat="60.0812627" lon="-1.3317546">
<ele>1.51</ele>
<time>2018-08-16T18:24:04Z</time>
<hdop>3</hdop>
<extensions>
<speed>0.4</speed>
</extensions>
</trkpt>
<trkpt lat="60.0812918" lon="-1.3317445">
<ele>2.51</ele>
<time>2018-08-16T18:24:09Z</time>
<hdop>3</hdop>
<extensions>
<speed>0.56</speed>
</extensions>
</trkpt>
<trkpt lat="60.081321" lon="-1.3317213">
<ele>3.51</ele>
<time>2018-08-16T18:24:15Z</time>
<hdop>3</hdop>
<extensions>
<speed>0.21</speed>
</extensions>
</trkpt>
<trkpt lat="60.0813247" lon="-1.3317233">
<ele>3.51</ele>
<time>2018-08-16T18:24:21Z</time>
<hdop>3</hdop>
<extensions>
<speed>0.17</speed>
</extensions>
</trkpt>
<trkpt lat="60.0813389" lon="-1.3317486">
<ele>3.51</ele>
<time>2018-08-16T18:24:26Z</time>
<hdop>3</hdop>
<extensions>
<speed>0.62</speed>
</extensions>
</trkpt>
<trkpt lat="60.0813563" lon="-1.3318068">
<ele>3.51</ele>
<time>2018-08-16T18:24:32Z</time>
<hdop>3</hdop>
<extensions>
<speed>0.32</speed>
</extensions>
</trkpt>
<trkpt lat="60.0813575" lon="-1.3318958">
<ele>2.51</ele>
<time>2018-08-16T18:24:38Z</time>
<hdop>3</hdop>
<extensions>
<speed>0.96</speed>
</extensions>
</trkpt>
<trkpt lat="60.081282" lon="-1.3319296">
<ele>2.51</ele>
<time>2018-08-16T18:24:44Z</time>
<hdop>3</hdop>
<extensions>
<speed>1.38</speed>
</extensions>
</trkpt>
<trkpt lat="60.0811928" lon="-1.331943">
<ele>1.51</ele>
<time>2018-08-16T18:24:50Z</time>
<hdop>3</hdop>
<extensions>
<speed>1.88</speed>
</extensions>
</trkpt>
<trkpt lat="60.0811238" lon="-1.3319486">
<ele>1.51</ele>
<time>2018-08-16T18:24:55Z</time>
<hdop>3</hdop>
<extensions>
<speed>1.57</speed>
</extensions>
</trkpt>
<trkpt lat="60.0810646" lon="-1.3319462">
<ele>2.51</ele>
<time>2018-08-16T18:25:01Z</time>
<hdop>3</hdop>
<extensions>
<speed>0.89</speed>
</extensions>
</trkpt>
<trkpt lat="60.0810208" lon="-1.3319537">
<ele>1.51</ele>
<time>2018-08-16T18:25:07Z</time>
<hdop>3</hdop>
<extensions>
<speed>0.5</speed>
</extensions>
</trkpt>
<trkpt lat="60.0810083" lon="-1.3319772">
<ele>1.51</ele>
<time>2018-08-16T18:25:12Z</time>
<hdop>3</hdop>
</trkpt>
<trkpt lat="60.0810031" lon="-1.3319782">
<ele>2.51</ele>
<time>2018-08-16T18:25:18Z</time>
<hdop>3</hdop>
<extensions>
<speed>0.24</speed>
</extensions>
</trkpt>
<trkpt lat="60.0809994" lon="-1.3319811">
<ele>2.51</ele>
<time>2018-08-16T18:25:23Z</time>
<hdop>3</hdop>
</trkpt>
<trkpt lat="60.0810071" lon="-1.3319994">
<ele>2.51</ele>
<time>2018-08-16T18:25:29Z</time>
<hdop>3</hdop>
<extensions>
<speed>0.15</speed>
</extensions>
</trkpt>
<trkpt lat="60.0809792" lon="-1.3320053">
<ele>2.51</ele>
<time>2018-08-16T18:25:35Z</time>
<hdop>3</hdop>
<extensions>
<speed>0.67</speed>
</extensions>
</trkpt>
<trkpt lat="60.0809646" lon="-1.3319985">
<ele>2.51</ele>
<time>2018-08-16T18:25:40Z</time>
<hdop>3</hdop>
</trkpt>
<trkpt lat="60.0809632" lon="-1.3319961">
<ele>3.51</ele>
<time>2018-08-16T18:25:46Z</time>
<hdop>3</hdop>
</trkpt>
<trkpt lat="60.0809641" lon="-1.3319966">
<ele>4.51</ele>
<time>2018-08-16T18:25:51Z</time>
<hdop>3</hdop>
</trkpt>
<trkpt lat="60.080964" lon="-1.3319967">
<ele>4.51</ele>
<time>2018-08-16T18:25:56Z</time>
<hdop>3</hdop>
</trkpt>
<trkpt lat="60.0809639" lon="-1.3319967">
<ele>4.51</ele>
<time>2018-08-16T18:26:02Z</time>
<hdop>3</hdop>
</trkpt>
<trkpt lat="60.0809682" lon="-1.3319996">
<ele>4.51</ele>
<time>2018-08-16T18:26:08Z</time>
<hdop>3</hdop>
</trkpt>
<trkpt lat="60.0809724" lon="-1.3320043">
<ele>4.51</ele>
<time>2018-08-16T18:26:13Z</time>
<hdop>3</hdop>
</trkpt>
<trkpt lat="60.0809839" lon="-1.3320095">
<ele>4.51</ele>
<time>2018-08-16T18:26:19Z</time>
<hdop>3</hdop>
<extensions>
<speed>0.23</speed>
</extensions>
</trkpt>
<trkpt lat="60.0809798" lon="-1.3320258">
<ele>4.51</ele>
<time>2018-08-16T18:26:24Z</time>
<hdop>3</hdop>
</trkpt>
<trkpt lat="60.0809794" lon="-1.3320282">
<ele>4.51</ele>
<time>2018-08-16T18:26:30Z</time>
<hdop>3</hdop>
</trkpt>
<trkpt lat="60.08098" lon="-1.3320225">
<ele>4.51</ele>
<time>2018-08-16T18:26:35Z</time>
<hdop>3</hdop>
</trkpt>
<trkpt lat="60.080976" lon="-1.3320194">
<ele>3.51</ele>
<time>2018-08-16T18:26:41Z</time>
<hdop>3</hdop>
</trkpt>
<trkpt lat="60.0809749" lon="-1.3320252">
<ele>4.51</ele>
<time>2018-08-16T18:26:46Z</time>
<hdop>3</hdop>
</trkpt>
<trkpt lat="60.0809802" lon="-1.3320263">
<ele>4.51</ele>
<time>2018-08-16T18:26:52Z</time>
<hdop>3</hdop>
<extensions>
<speed>0.23</speed>
</extensions>
</trkpt>
<trkpt lat="60.0809784" lon="-1.3320173">
<ele>4.51</ele>
<time>2018-08-16T18:26:57Z</time>
<hdop>3</hdop>
</trkpt>
<trkpt lat="60.0809763" lon="-1.3320157">
<ele>3.51</ele>
<time>2018-08-16T18:27:03Z</time>
<hdop>3</hdop>
</trkpt>
<trkpt lat="60.0809763" lon="-1.3320162">
<ele>3.51</ele>
<time>2018-08-16T18:27:08Z</time>
<hdop>3</hdop>
</trkpt>
<trkpt lat="60.0809763" lon="-1.3320163">
<ele>3.51</ele>
<time>2018-08-16T18:27:13Z</time>
<hdop>3</hdop>
</trkpt>
<trkpt lat="60.0809878" lon="-1.3320226">
<ele>3.51</ele>
<time>2018-08-16T18:27:19Z</time>
<hdop>3</hdop>
</trkpt>
<trkpt lat="60.0809843" lon="-1.3320201">
<ele>4.51</ele>
<time>2018-08-16T18:27:24Z</time>
<hdop>3</hdop>
</trkpt>
<trkpt lat="60.0809835" lon="-1.332022">
<ele>4.51</ele>
<time>2018-08-16T18:27:29Z</time>
<hdop>3</hdop>
</trkpt>
<trkpt lat="60.0809769" lon="-1.3320247">
<ele>3.51</ele>
<time>2018-08-16T18:27:34Z</time>
<hdop>3</hdop>
<extensions>
<speed>0.21</speed>
</extensions>
</trkpt>
<trkpt lat="60.0809742" lon="-1.332041">
<ele>4.51</ele>
<time>2018-08-16T18:27:40Z</time>
<hdop>3</hdop>
</trkpt>
<trkpt lat="60.0809753" lon="-1.3320317">
<ele>4.51</ele>
<time>2018-08-16T18:27:46Z</time>
<hdop>3</hdop>
</trkpt>
<trkpt lat="60.0809736" lon="-1.3320297">
<ele>4.51</ele>
<time>2018-08-16T18:27:52Z</time>
<hdop>3</hdop>
</trkpt>
<trkpt lat="60.0809734" lon="-1.3320294">
<ele>4.51</ele>
<time>2018-08-16T18:27:57Z</time>
<hdop>3</hdop>
</trkpt>
<trkpt lat="60.0809734" lon="-1.3320294">
<ele>4.51</ele>
<time>2018-08-16T18:28:03Z</time>
<hdop>3</hdop>
</trkpt>
<trkpt lat="60.0809734" lon="-1.3320294">
<ele>4.51</ele>
<time>2018-08-16T18:28:09Z</time>
<hdop>3</hdop>
</trkpt>
<trkpt lat="60.0809734" lon="-1.3320294">
<ele>4.51</ele>
<time>2018-08-16T18:28:14Z</time>
<hdop>3</hdop>
</trkpt>
<trkpt lat="60.0809734" lon="-1.3320295">
<ele>4.51</ele>
<time>2018-08-16T18:28:19Z</time>
<hdop>3</hdop>
</trkpt>
<trkpt lat="60.0809734" lon="-1.3320295">
<ele>4.51</ele>
<time>2018-08-16T18:28:24Z</time>
<hdop>3</hdop>
</trkpt>
<trkpt lat="60.0809734" lon="-1.3320296">
<ele>4.51</ele>
<time>2018-08-16T18:28:30Z</time>
<hdop>3</hdop>
</trkpt>
<trkpt lat="60.0809734" lon="-1.3320296">
<ele>4.51</ele>
<time>2018-08-16T18:28:35Z</time>
<hdop>3</hdop>
</trkpt>
<trkpt lat="60.0809734" lon="-1.3320297">
<ele>4.51</ele>
<time>2018-08-16T18:28:41Z</time>
<hdop>3</hdop>
</trkpt>
<trkpt lat="60.0809732" lon="-1.3320298">
<ele>4.51</ele>
<time>2018-08-16T18:28:47Z</time>
<hdop>3</hdop>
</trkpt>
<trkpt lat="60.0809732" lon="-1.3320299">
<ele>4.51</ele>
<time>2018-08-16T18:28:52Z</time>
<hdop>3</hdop>
</trkpt>
<trkpt lat="60.0809781" lon="-1.3320355">
<ele>4.51</ele>
<time>2018-08-16T18:28:57Z</time>
<hdop>3</hdop>
</trkpt>
<trkpt lat="60.0809837" lon="-1.3320368">
<ele>4.51</ele>
<time>2018-08-16T18:29:03Z</time>
<hdop>3</hdop>
</trkpt>
<trkpt lat="60.0809801" lon="-1.3320412">
<ele>4.51</ele>
<time>2018-08-16T18:29:09Z</time>
<hdop>3</hdop>
</trkpt>
<trkpt lat="60.0809762" lon="-1.3320444">
<ele>4.51</ele>
<time>2018-08-16T18:29:14Z</time>
<hdop>3</hdop>
</trkpt>
<trkpt lat="60.0809754" lon="-1.3320421">
<ele>4.51</ele>
<time>2018-08-16T18:29:20Z</time>
<hdop>3</hdop>
</trkpt>
<trkpt lat="60.0809754" lon="-1.3320423">
<ele>4.51</ele>
<time>2018-08-16T18:29:25Z</time>
<hdop>3</hdop>
</trkpt>
<trkpt lat="60.0809754" lon="-1.3320423">
<ele>4.51</ele>
<time>2018-08-16T18:29:31Z</time>
<hdop>3</hdop>
</trkpt>
<trkpt lat="60.0809753" lon="-1.3320423">
<ele>4.51</ele>
<time>2018-08-16T18:29:37Z</time>
<hdop>3</hdop>
</trkpt>
<trkpt lat="60.0809753" lon="-1.3320424">
<ele>4.51</ele>
<time>2018-08-16T18:29:43Z</time>
<hdop>3</hdop>
</trkpt>
<trkpt lat="60.0809752" lon="-1.3320422">
<ele>4.51</ele>
<time>2018-08-16T18:29:49Z</time>
<hdop>3</hdop>
</trkpt>
<trkpt lat="60.0809752" lon="-1.3320422">
<ele>4.51</ele>
<time>2018-08-16T18:29:55Z</time>
<hdop>3</hdop>
</trkpt>
<trkpt lat="60.0809752" lon="-1.3320423">
<ele>4.51</ele>
<time>2018-08-16T18:30:01Z</time>
<hdop>3</hdop>
</trkpt>
<trkpt lat="60.0809742" lon="-1.3320484">
<ele>4.51</ele>
<time>2018-08-16T18:30:06Z</time>
<hdop>3</hdop>
</trkpt>
<trkpt lat="60.0809808" lon="-1.3320635">
<ele>6.51</ele>
<time>2018-08-16T18:30:12Z</time>
<hdop>3</hdop>
</trkpt>
<trkpt lat="60.080978" lon="-1.3320674">
<ele>5.51</ele>
<time>2018-08-16T18:30:17Z</time>
<hdop>3</hdop>
</trkpt>
<trkpt lat="60.0809785" lon="-1.3320682">
<ele>5.51</ele>
<time>2018-08-16T18:30:23Z</time>
<hdop>3</hdop>
</trkpt>
<trkpt lat="60.0809783" lon="-1.3320684">
<ele>5.51</ele>
<time>2018-08-16T18:30:29Z</time>
<hdop>3</hdop>
</trkpt>
<trkpt lat="60.0809783" lon="-1.3320686">
<ele>5.51</ele>
<time>2018-08-16T18:30:35Z</time>
<hdop>3</hdop>
</trkpt>
<trkpt lat="60.0809782" lon="-1.3320688">
<ele>5.51</ele>
<time>2018-08-16T18:30:41Z</time>
<hdop>3</hdop>
</trkpt>
<trkpt lat="60.0809781" lon="-1.332069">
<ele>5.51</ele>
<time>2018-08-16T18:30:47Z</time>
<hdop>3</hdop>
</trkpt>
<trkpt lat="60.0809781" lon="-1.3320693">
<ele>5.51</ele>
<time>2018-08-16T18:30:53Z</time>
<hdop>3</hdop>
</trkpt>
<trkpt lat="60.080978" lon="-1.3320695">
<ele>5.51</ele>
<time>2018-08-16T18:30:58Z</time>
<hdop>3</hdop>
</trkpt>
<trkpt lat="60.0809779" lon="-1.3320696">
<ele>5.51</ele>
<time>2018-08-16T18:31:04Z</time>
<hdop>3</hdop>
</trkpt>
<trkpt lat="60.0809778" lon="-1.3320698">
<ele>5.51</ele>
<time>2018-08-16T18:31:10Z</time>
<hdop>3</hdop>
</trkpt>
<trkpt lat="60.0809777" lon="-1.33207">
<ele>5.51</ele>
<time>2018-08-16T18:31:16Z</time>
<hdop>3</hdop>
</trkpt>
<trkpt lat="60.0809776" lon="-1.3320704">
<ele>5.51</ele>
<time>2018-08-16T18:31:22Z</time>
<hdop>3</hdop>
</trkpt>
<trkpt lat="60.0809775" lon="-1.3320706">
<ele>5.51</ele>
<time>2018-08-16T18:31:28Z</time>
<hdop>3</hdop>
</trkpt>
<trkpt lat="60.0809774" lon="-1.3320706">
<ele>5.51</ele>
<time>2018-08-16T18:31:34Z</time>
<hdop>3</hdop>
</trkpt>
<trkpt lat="60.0809892" lon="-1.3320712">
<ele>5.51</ele>
<time>2018-08-16T18:31:40Z</time>
<hdop>3</hdop>
<extensions>
<speed>0.36</speed>
</extensions>
</trkpt>
<trkpt lat="60.081004" lon="-1.3320802">
<ele>5.51</ele>
<time>2018-08-16T18:31:46Z</time>
<hdop>3</hdop>
<extensions>
<speed>0.53</speed>
</extensions>
</trkpt>
<trkpt lat="60.0810271" lon="-1.332077">
<ele>5.51</ele>
<time>2018-08-16T18:31:51Z</time>
<hdop>3</hdop>
<extensions>
<speed>0.6</speed>
</extensions>
</trkpt>
<trkpt lat="60.0810574" lon="-1.3320862">
<ele>5.51</ele>
<time>2018-08-16T18:31:56Z</time>
<hdop>3</hdop>
<extensions>
<speed>0.57</speed>
</extensions>
</trkpt>
<trkpt lat="60.0810752" lon="-1.3320766">
<ele>4.51</ele>
<time>2018-08-16T18:32:02Z</time>
<hdop>3</hdop>
<extensions>
<speed>0.29</speed>
</extensions>
</trkpt>
<trkpt lat="60.0810965" lon="-1.3320506">
<ele>3.51</ele>
<time>2018-08-16T18:32:07Z</time>
<hdop>3</hdop>
<extensions>
<speed>0.6</speed>
</extensions>
</trkpt>
<trkpt lat="60.0811403" lon="-1.331998">
<ele>4.51</ele>
<time>2018-08-16T18:32:13Z</time>
<hdop>3</hdop>
<extensions>
<speed>1.25</speed>
</extensions>
</trkpt>
<trkpt lat="60.0811907" lon="-1.3319597">
<ele>4.51</ele>
<time>2018-08-16T18:32:18Z</time>
<hdop>3</hdop>
<extensions>
<speed>1.37</speed>
</extensions>
</trkpt>
<trkpt lat="60.0812644" lon="-1.3319248">
<ele>3.51</ele>
<time>2018-08-16T18:32:24Z</time>
<hdop>3</hdop>
<extensions>
<speed>1.36</speed>
</extensions>
</trkpt>
<trkpt lat="60.0813168" lon="-1.3319178">
<ele>4.51</ele>
<time>2018-08-16T18:32:29Z</time>
<hdop>3</hdop>
<extensions>
<speed>1.08</speed>
</extensions>
</trkpt>
<trkpt lat="60.0813681" lon="-1.3319071">
<ele>2.51</ele>
<time>2018-08-16T18:32:34Z</time>
<hdop>3</hdop>
<extensions>
<speed>0.95</speed>
</extensions>
</trkpt>
<trkpt lat="60.0814354" lon="-1.3319181">
<ele>2.51</ele>
<time>2018-08-16T18:32:39Z</time>
<hdop>3</hdop>
<extensions>
<speed>1.3</speed>
</extensions>
</trkpt>
<trkpt lat="60.081477" lon="-1.3319744">
<ele>3.51</ele>
<time>2018-08-16T18:32:45Z</time>
<hdop>3</hdop>
<extensions>
<speed>1.07</speed>
</extensions>
</trkpt>
<trkpt lat="60.0814988" lon="-1.3320521">
<ele>2.51</ele>
<time>2018-08-16T18:32:50Z</time>
<hdop>3</hdop>
<extensions>
<speed>1.12</speed>
</extensions>
</trkpt>
<trkpt lat="60.0815108" lon="-1.332192">
<ele>2.51</ele>
<time>2018-08-16T18:32:56Z</time>
<hdop>3</hdop>
<extensions>
<speed>1.31</speed>
</extensions>
</trkpt>
<trkpt lat="60.0814916" lon="-1.3323205">
<ele>2.51</ele>
<time>2018-08-16T18:33:02Z</time>
<hdop>3</hdop>
<extensions>
<speed>1.32</speed>
</extensions>
</trkpt>
<trkpt lat="60.0814614" lon="-1.3324092">
<ele>2.51</ele>
<time>2018-08-16T18:33:07Z</time>
<hdop>3</hdop>
<extensions>
<speed>1.32</speed>
</extensions>
</trkpt>
<trkpt lat="60.0814101" lon="-1.3324945">
<ele>1.51</ele>
<time>2018-08-16T18:33:13Z</time>
<hdop>3</hdop>
<extensions>
<speed>1.32</speed>
</extensions>
</trkpt>
<trkpt lat="60.0813459" lon="-1.3325708">
<ele>1.51</ele>
<time>2018-08-16T18:33:19Z</time>
<hdop>3</hdop>
<extensions>
<speed>1.41</speed>
</extensions>
</trkpt>
<trkpt lat="60.0812947" lon="-1.3326496">
<ele>1.51</ele>
<time>2018-08-16T18:33:24Z</time>
<hdop>3</hdop>
<extensions>
<speed>1.38</speed>
</extensions>
</trkpt>
<trkpt lat="60.0812438" lon="-1.33274">
<ele>2.51</ele>
<time>2018-08-16T18:33:30Z</time>
<hdop>3</hdop>
<extensions>
<speed>1.2</speed>
</extensions>
</trkpt>
<trkpt lat="60.0812116" lon="-1.3327881">
<ele>2.51</ele>
<time>2018-08-16T18:33:36Z</time>
<hdop>3</hdop>
<extensions>
<speed>0.82</speed>
</extensions>
</trkpt>
<trkpt lat="60.0811753" lon="-1.3328499">
<ele>2.51</ele>
<time>2018-08-16T18:33:42Z</time>
<hdop>3</hdop>
<extensions>
<speed>1.25</speed>
</extensions>
</trkpt>
<trkpt lat="60.0811206" lon="-1.3329145">
<ele>1.51</ele>
<time>2018-08-16T18:33:48Z</time>
<hdop>3</hdop>
<extensions>
<speed>1.1</speed>
</extensions>
</trkpt>
<trkpt lat="60.0810654" lon="-1.3329103">
<ele>1.51</ele>
<time>2018-08-16T18:33:53Z</time>
<hdop>3</hdop>
<extensions>
<speed>1.06</speed>
</extensions>
</trkpt>
<trkpt lat="60.0810058" lon="-1.3328871">
<ele>1.51</ele>
<time>2018-08-16T18:33:59Z</time>
<hdop>3</hdop>
<extensions>
<speed>0.71</speed>
</extensions>
</trkpt>
<trkpt lat="60.0809586" lon="-1.3328612">
<ele>1.51</ele>
<time>2018-08-16T18:34:05Z</time>
<hdop>3</hdop>
<extensions>
<speed>0.98</speed>
</extensions>
</trkpt>
<trkpt lat="60.0809064" lon="-1.3328318">
<ele>2.51</ele>
<time>2018-08-16T18:34:11Z</time>
<hdop>3</hdop>
<extensions>
<speed>1.12</speed>
</extensions>
</trkpt>
<trkpt lat="60.0808336" lon="-1.3328052">
<ele>1.51</ele>
<time>2018-08-16T18:34:17Z</time>
<hdop>3</hdop>
<extensions>
<speed>1.13</speed>
</extensions>
</trkpt>
<trkpt lat="60.0807713" lon="-1.3327654">
<ele>0.51</ele>
<time>2018-08-16T18:34:22Z</time>
<hdop>3</hdop>
<extensions>
<speed>1.47</speed>
</extensions>
</trkpt>
<trkpt lat="60.0807086" lon="-1.3327215">
<ele>0.51</ele>
<time>2018-08-16T18:34:28Z</time>
<hdop>3</hdop>
<extensions>
<speed>1.14</speed>
</extensions>
</trkpt>
<trkpt lat="60.0806447" lon="-1.332659">
<ele>0.51</ele>
<time>2018-08-16T18:34:34Z</time>
<hdop>3</hdop>
<extensions>
<speed>1.15</speed>
</extensions>
</trkpt>
<trkpt lat="60.0805885" lon="-1.3325955">
<ele>0.51</ele>
<time>2018-08-16T18:34:40Z</time>
<hdop>3</hdop>
<extensions>
<speed>1.15</speed>
</extensions>
</trkpt>
<trkpt lat="60.0805359" lon="-1.3325302">
<ele>-0.49</ele>
<time>2018-08-16T18:34:45Z</time>
<hdop>3</hdop>
<extensions>
<speed>1.41</speed>
</extensions>
</trkpt>
<trkpt lat="60.0804728" lon="-1.3324422">
<ele>-1.49</ele>
<time>2018-08-16T18:34:51Z</time>
<hdop>3</hdop>
<extensions>
<speed>1.32</speed>
</extensions>
</trkpt>
<trkpt lat="60.0804176" lon="-1.3323677">
<ele>-1.49</ele>
<time>2018-08-16T18:34:56Z</time>
<hdop>3</hdop>
<extensions>
<speed>1.52</speed>
</extensions>
</trkpt>
<trkpt lat="60.0803475" lon="-1.3322798">
<ele>-1.49</ele>
<time>2018-08-16T18:35:02Z</time>
<hdop>3</hdop>
<extensions>
<speed>1.54</speed>
</extensions>
</trkpt>
<trkpt lat="60.0802905" lon="-1.3321855">
<ele>-1.49</ele>
<time>2018-08-16T18:35:08Z</time>
<hdop>3</hdop>
<extensions>
<speed>0.75</speed>
</extensions>
</trkpt>
<trkpt lat="60.0802818" lon="-1.3320726">
<ele>-0.49</ele>
<time>2018-08-16T18:35:13Z</time>
<hdop>3</hdop>
<extensions>
<speed>1.54</speed>
</extensions>
</trkpt>
<trkpt lat="60.0802937" lon="-1.3319129">
<ele>0.51</ele>
<time>2018-08-16T18:35:19Z</time>
<hdop>3</hdop>
<extensions>
<speed>1.71</speed>
</extensions>
</trkpt>
<trkpt lat="60.0803045" lon="-1.3317528">
<ele>0.51</ele>
<time>2018-08-16T18:35:24Z</time>
<hdop>3</hdop>
<extensions>
<speed>1.92</speed>
</extensions>
</trkpt>
<trkpt lat="60.08031" lon="-1.3315723">
<ele>0.51</ele>
<time>2018-08-16T18:35:30Z</time>
<hdop>3</hdop>
<extensions>
<speed>1.66</speed>
</extensions>
</trkpt>
<trkpt lat="60.080331" lon="-1.331455">
<ele>0.51</ele>
<time>2018-08-16T18:35:36Z</time>
<hdop>3</hdop>
<extensions>
<speed>1.34</speed>
</extensions>
</trkpt>
<trkpt lat="60.0803887" lon="-1.3313535">
<ele>0.51</ele>
<time>2018-08-16T18:35:42Z</time>
<hdop>3</hdop>
<extensions>
<speed>1.62</speed>
</extensions>
</trkpt>
<trkpt lat="60.0804695" lon="-1.3312904">
<ele>0.51</ele>
<time>2018-08-16T18:35:48Z</time>
<hdop>3</hdop>
<extensions>
<speed>1.98</speed>
</extensions>
</trkpt>
<trkpt lat="60.0805448" lon="-1.3312365">
<ele>1.51</ele>
<time>2018-08-16T18:35:53Z</time>
<hdop>3</hdop>
<extensions>
<speed>1.54</speed>
</extensions>
</trkpt>
<trkpt lat="60.0805974" lon="-1.3311308">
<ele>2.51</ele>
<time>2018-08-16T18:35:58Z</time>
<hdop>3</hdop>
<extensions>
<speed>1.48</speed>
</extensions>
</trkpt>
<trkpt lat="60.0806676" lon="-1.3309874">
<ele>2.51</ele>
<time>2018-08-16T18:36:04Z</time>
<hdop>3</hdop>
<extensions>
<speed>1.73</speed>
</extensions>
</trkpt>
<trkpt lat="60.080711" lon="-1.3308608">
<ele>1.51</ele>
<time>2018-08-16T18:36:09Z</time>
<hdop>3</hdop>
<extensions>
<speed>1.12</speed>
</extensions>
</trkpt>
<trkpt lat="60.0807542" lon="-1.3307209">
<ele>0.51</ele>
<time>2018-08-16T18:36:15Z</time>
<hdop>3</hdop>
<extensions>
<speed>2.03</speed>
</extensions>
</trkpt>
<trkpt lat="60.080815" lon="-1.330638">
<ele>-0.49</ele>
<time>2018-08-16T18:36:20Z</time>
<hdop>3</hdop>
<extensions>
<speed>1.52</speed>
</extensions>
</trkpt>
<trkpt lat="60.0809217" lon="-1.3305897">
<ele>1.51</ele>
<time>2018-08-16T18:36:26Z</time>
<hdop>3</hdop>
<extensions>
<speed>1.65</speed>
</extensions>
</trkpt>
<trkpt lat="60.0810119" lon="-1.3305704">
<ele>2.51</ele>
<time>2018-08-16T18:36:31Z</time>
<hdop>3</hdop>
<extensions>
<speed>2.21</speed>
</extensions>
</trkpt>
<trkpt lat="60.0810897" lon="-1.3305491">
<ele>3.51</ele>
<time>2018-08-16T18:36:36Z</time>
<hdop>3</hdop>
<extensions>
<speed>1.54</speed>
</extensions>
</trkpt>
<trkpt lat="60.0811655" lon="-1.3305454">
<ele>1.51</ele>
<time>2018-08-16T18:36:42Z</time>
<hdop>3</hdop>
<extensions>
<speed>1.3</speed>
</extensions>
</trkpt>
<trkpt lat="60.0812362" lon="-1.3304875">
<ele>2.51</ele>
<time>2018-08-16T18:36:48Z</time>
<hdop>3</hdop>
<extensions>
<speed>1.6</speed>
</extensions>
</trkpt>
<trkpt lat="60.0813377" lon="-1.330427">
<ele>3.51</ele>
<time>2018-08-16T18:36:54Z</time>
<hdop>3</hdop>
<extensions>
<speed>1.92</speed>
</extensions>
</trkpt>
<trkpt lat="60.0814039" lon="-1.3303717">
<ele>3.51</ele>
<time>2018-08-16T18:36:59Z</time>
<hdop>3</hdop>
<extensions>
<speed>1.69</speed>
</extensions>
</trkpt>
<trkpt lat="60.0814682" lon="-1.3303682">
<ele>3.51</ele>
<time>2018-08-16T18:37:05Z</time>
<hdop>6</hdop>
<extensions>
<speed>0.64</speed>
</extensions>
</trkpt>
<trkpt lat="60.0815126" lon="-1.3304337">
<ele>1.51</ele>
<time>2018-08-16T18:37:10Z</time>
<hdop>8</hdop>
<extensions>
<speed>0.51</speed>
</extensions>
</trkpt>
<trkpt lat="60.0815824" lon="-1.3303836">
<ele>-1.49</ele>
<time>2018-08-16T18:37:16Z</time>
<hdop>6</hdop>
<extensions>
<speed>1.31</speed>
</extensions>
</trkpt>
<trkpt lat="60.0816498" lon="-1.3303309">
<ele>-1.49</ele>
<time>2018-08-16T18:37:21Z</time>
<hdop>4</hdop>
<extensions>
<speed>1.36</speed>
</extensions>
</trkpt>
<trkpt lat="60.0817221" lon="-1.3302422">
<ele>-3.49</ele>
<time>2018-08-16T18:37:27Z</time>
<hdop>4</hdop>
<extensions>
<speed>1.84</speed>
</extensions>
</trkpt>
<trkpt lat="60.0818155" lon="-1.330169">
<ele>-2.49</ele>
<time>2018-08-16T18:37:32Z</time>
<hdop>3</hdop>
<extensions>
<speed>1.81</speed>
</extensions>
</trkpt>
<trkpt lat="60.0819106" lon="-1.3300905">
<ele>0.51</ele>
<time>2018-08-16T18:37:37Z</time>
<hdop>3</hdop>
<extensions>
<speed>2.16</speed>
</extensions>
</trkpt>
<trkpt lat="60.081994" lon="-1.3300015">
<ele>4.51</ele>
<time>2018-08-16T18:37:42Z</time>
<hdop>3</hdop>
<extensions>
<speed>1.82</speed>
</extensions>
</trkpt>
<trkpt lat="60.082069" lon="-1.3299007">
<ele>4.51</ele>
<time>2018-08-16T18:37:48Z</time>
<hdop>3</hdop>
<extensions>
<speed>1.44</speed>
</extensions>
</trkpt>
<trkpt lat="60.0821037" lon="-1.3298414">
<ele>2.51</ele>
<time>2018-08-16T18:37:53Z</time>
<hdop>3</hdop>
<extensions>
<speed>1.27</speed>
</extensions>
</trkpt>
<trkpt lat="60.0821519" lon="-1.3297432">
<ele>2.51</ele>
<time>2018-08-16T18:37:59Z</time>
<hdop>3</hdop>
<extensions>
<speed>1.24</speed>
</extensions>
</trkpt>
<trkpt lat="60.0822073" lon="-1.3296476">
<ele>2.51</ele>
<time>2018-08-16T18:38:05Z</time>
<hdop>4</hdop>
<extensions>
<speed>1.41</speed>
</extensions>
</trkpt>
<trkpt lat="60.08226" lon="-1.3295709">
<ele>-0.49</ele>
<time>2018-08-16T18:38:11Z</time>
<hdop>3</hdop>
<extensions>
<speed>1.3</speed>
</extensions>
</trkpt>
<trkpt lat="60.0823164" lon="-1.3295195">
<ele>-0.49</ele>
<time>2018-08-16T18:38:16Z</time>
<hdop>3</hdop>
<extensions>
<speed>1.39</speed>
</extensions>
</trkpt>
<trkpt lat="60.0823877" lon="-1.329418">
<ele>0.51</ele>
<time>2018-08-16T18:38:22Z</time>
<hdop>3</hdop>
<extensions>
<speed>1.58</speed>
</extensions>
</trkpt>
<trkpt lat="60.082453" lon="-1.3293137">
<ele>1.51</ele>
<time>2018-08-16T18:38:27Z</time>
<hdop>3</hdop>
<extensions>
<speed>1.88</speed>
</extensions>
</trkpt>
<trkpt lat="60.082523" lon="-1.3291822">
<ele>2.51</ele>
<time>2018-08-16T18:38:33Z</time>
<hdop>3</hdop>
<extensions>
<speed>2.08</speed>
</extensions>
</trkpt>
<trkpt lat="60.08258" lon="-1.3290524">
<ele>3.51</ele>
<time>2018-08-16T18:38:38Z</time>
<hdop>3</hdop>
<extensions>
<speed>1.78</speed>
</extensions>
</trkpt>
<trkpt lat="60.0826179" lon="-1.3289284">
<ele>4.51</ele>
<time>2018-08-16T18:38:43Z</time>
<hdop>3</hdop>
<extensions>
<speed>1.46</speed>
</extensions>
</trkpt>
<trkpt lat="60.0826513" lon="-1.3288576">
<ele>4.51</ele>
<time>2018-08-16T18:38:48Z</time>
<hdop>3</hdop>
<extensions>
<speed>1.72</speed>
</extensions>
</trkpt>
<trkpt lat="60.0826979" lon="-1.3288144">
<ele>3.51</ele>
<time>2018-08-16T18:38:53Z</time>
<hdop>3</hdop>
<extensions>
<speed>1.31</speed>
</extensions>
</trkpt>
<trkpt lat="60.0827605" lon="-1.3287764">
<ele>4.51</ele>
<time>2018-08-16T18:38:58Z</time>
<hdop>3</hdop>
<extensions>
<speed>1.37</speed>
</extensions>
</trkpt>
<trkpt lat="60.0828389" lon="-1.3287408">
<ele>4.51</ele>
<time>2018-08-16T18:39:04Z</time>
<hdop>3</hdop>
<extensions>
<speed>1.59</speed>
</extensions>
</trkpt>
<trkpt lat="60.082909" lon="-1.3287231">
<ele>3.51</ele>
<time>2018-08-16T18:39:09Z</time>
<hdop>3</hdop>
<extensions>
<speed>1.36</speed>
</extensions>
</trkpt>
<trkpt lat="60.0829762" lon="-1.3286996">
<ele>4.51</ele>
<time>2018-08-16T18:39:14Z</time>
<hdop>3</hdop>
<extensions>
<speed>1.77</speed>
</extensions>
</trkpt>
<trkpt lat="60.0830624" lon="-1.3286526">
<ele>4.51</ele>
<time>2018-08-16T18:39:20Z</time>
<hdop>3</hdop>
<extensions>
<speed>1.46</speed>
</extensions>
</trkpt>
<trkpt lat="60.083156" lon="-1.328624">
<ele>4.51</ele>
<time>2018-08-16T18:39:26Z</time>
<hdop>3</hdop>
<extensions>
<speed>1.58</speed>
</extensions>
</trkpt>
<trkpt lat="60.0832437" lon="-1.3285638">
<ele>5.51</ele>
<time>2018-08-16T18:39:32Z</time>
<hdop>3</hdop>
<extensions>
<speed>2.02</speed>
</extensions>
</trkpt>
<trkpt lat="60.0833432" lon="-1.3285152">
<ele>6.51</ele>
<time>2018-08-16T18:39:38Z</time>
<hdop>3</hdop>
<extensions>
<speed>1.32</speed>
</extensions>
</trkpt>
<trkpt lat="60.0834058" lon="-1.3284667">
<ele>5.51</ele>
<time>2018-08-16T18:39:43Z</time>
<hdop>3</hdop>
<extensions>
<speed>1.7</speed>
</extensions>
</trkpt>
<trkpt lat="60.0834949" lon="-1.3283698">
<ele>6.51</ele>
<time>2018-08-16T18:39:49Z</time>
<hdop>3</hdop>
<extensions>
<speed>2.03</speed>
</extensions>
</trkpt>
<trkpt lat="60.0835779" lon="-1.3282937">
<ele>4.51</ele>
<time>2018-08-16T18:39:55Z</time>
<hdop>3</hdop>
<extensions>
<speed>1.89</speed>
</extensions>
</trkpt>
<trkpt lat="60.0836456" lon="-1.3282147">
<ele>6.51</ele>
<time>2018-08-16T18:40:00Z</time>
<hdop>3</hdop>
<extensions>
<speed>1.61</speed>
</extensions>
</trkpt>
<trkpt lat="60.0837343" lon="-1.3281335">
<ele>6.51</ele>
<time>2018-08-16T18:40:06Z</time>
<hdop>3</hdop>
<extensions>
<speed>2.09</speed>
</extensions>
</trkpt>
<trkpt lat="60.0838252" lon="-1.3280404">
<ele>4.51</ele>
<time>2018-08-16T18:40:12Z</time>
<hdop>3</hdop>
<extensions>
<speed>2.13</speed>
</extensions>
</trkpt>
<trkpt lat="60.083902" lon="-1.3279473">
<ele>3.51</ele>
<time>2018-08-16T18:40:17Z</time>
<hdop>3</hdop>
<extensions>
<speed>2.02</speed>
</extensions>
</trkpt>
<trkpt lat="60.0839967" lon="-1.3278494">
<ele>5.51</ele>
<time>2018-08-16T18:40:23Z</time>
<hdop>3</hdop>
<extensions>
<speed>1.89</speed>
</extensions>
</trkpt>
<trkpt lat="60.0840751" lon="-1.327757">
<ele>3.51</ele>
<time>2018-08-16T18:40:29Z</time>
<hdop>3</hdop>
<extensions>
<speed>1.82</speed>
</extensions>
</trkpt>
<trkpt lat="60.084137" lon="-1.3276503">
<ele>0.51</ele>
<time>2018-08-16T18:40:35Z</time>
<hdop>3</hdop>
<extensions>
<speed>1.85</speed>
</extensions>
</trkpt>
<trkpt lat="60.0842072" lon="-1.3275438">
<ele>-1.49</ele>
<time>2018-08-16T18:40:41Z</time>
<hdop>3</hdop>
<extensions>
<speed>1.57</speed>
</extensions>
</trkpt>
<trkpt lat="60.0842513" lon="-1.3274643">
<ele>-1.49</ele>
<time>2018-08-16T18:40:46Z</time>
<hdop>3</hdop>
<extensions>
<speed>1.53</speed>
</extensions>
</trkpt>
<trkpt lat="60.0842897" lon="-1.3273546">
<ele>-2.49</ele>
<time>2018-08-16T18:40:51Z</time>
<hdop>4</hdop>
<extensions>
<speed>1.21</speed>
</extensions>
</trkpt>
<trkpt lat="60.0843331" lon="-1.3273018">
<ele>-3.49</ele>
<time>2018-08-16T18:40:57Z</time>
<hdop>4</hdop>
<extensions>
<speed>1.15</speed>
</extensions>
</trkpt>
<trkpt lat="60.0843948" lon="-1.327263">
<ele>-4.49</ele>
<time>2018-08-16T18:41:02Z</time>
<hdop>4</hdop>
<extensions>
<speed>1.22</speed>
</extensions>
</trkpt>
<trkpt lat="60.0844115" lon="-1.3272416">
<ele>-5.49</ele>
<time>2018-08-16T18:41:07Z</time>
<hdop>3</hdop>
<extensions>
<speed>1.3</speed>
</extensions>
</trkpt>
<trkpt lat="60.0844415" lon="-1.3271505">
<ele>-5.49</ele>
<time>2018-08-16T18:41:12Z</time>
<hdop>3</hdop>
<extensions>
<speed>1.12</speed>
</extensions>
</trkpt>
<trkpt lat="60.0844654" lon="-1.3270906">
<ele>-2.49</ele>
<time>2018-08-16T18:41:18Z</time>
<hdop>3</hdop>
</trkpt>
<trkpt lat="60.0844791" lon="-1.3270739">
<ele>-4.49</ele>
<time>2018-08-16T18:41:24Z</time>
<hdop>3</hdop>
<extensions>
<speed>0.67</speed>
</extensions>
</trkpt>
<trkpt lat="60.084528" lon="-1.3270221">
<ele>-3.49</ele>
<time>2018-08-16T18:41:30Z</time>
<hdop>3</hdop>
<extensions>
<speed>1.14</speed>
</extensions>
</trkpt>
<trkpt lat="60.0845956" lon="-1.3269138">
<ele>-4.49</ele>
<time>2018-08-16T18:41:36Z</time>
<hdop>3</hdop>
<extensions>
<speed>1.58</speed>
</extensions>
</trkpt>
<trkpt lat="60.0846658" lon="-1.326845">
<ele>-3.49</ele>
<time>2018-08-16T18:41:41Z</time>
<hdop>3</hdop>
<extensions>
<speed>1.18</speed>
</extensions>
</trkpt>
<trkpt lat="60.0847422" lon="-1.3268033">
<ele>-4.49</ele>
<time>2018-08-16T18:41:47Z</time>
<hdop>3</hdop>
<extensions>
<speed>2.11</speed>
</extensions>
</trkpt>
<trkpt lat="60.0848196" lon="-1.3268163">
<ele>-2.49</ele>
<time>2018-08-16T18:41:52Z</time>
<hdop>3</hdop>
<extensions>
<speed>1.35</speed>
</extensions>
</trkpt>
<trkpt lat="60.084872" lon="-1.3267807">
<ele>-3.49</ele>
<time>2018-08-16T18:41:58Z</time>
<hdop>3</hdop>
<extensions>
<speed>0.53</speed>
</extensions>
</trkpt>
<trkpt lat="60.0849434" lon="-1.3267618">
<ele>-2.49</ele>
<time>2018-08-16T18:42:04Z</time>
<hdop>4</hdop>
<extensions>
<speed>0.8</speed>
</extensions>
</trkpt>
<trkpt lat="60.085008" lon="-1.3268008">
<ele>-2.49</ele>
<time>2018-08-16T18:42:10Z</time>
<hdop>3</hdop>
<extensions>
<speed>1.47</speed>
</extensions>
</trkpt>
<trkpt lat="60.0850548" lon="-1.3268254">
<ele>-2.49</ele>
<time>2018-08-16T18:42:16Z</time>
<hdop>3</hdop>
<extensions>
<speed>0.38</speed>
</extensions>
</trkpt>
<trkpt lat="60.0850751" lon="-1.3268158">
<ele>-2.49</ele>
<time>2018-08-16T18:42:22Z</time>
<hdop>3</hdop>
</trkpt>
<trkpt lat="60.0850834" lon="-1.3268249">
<ele>0.51</ele>
<time>2018-08-16T18:42:27Z</time>
<hdop>3</hdop>
</trkpt>
<trkpt lat="60.0850772" lon="-1.3268698">
<ele>-0.49</ele>
<time>2018-08-16T18:42:32Z</time>
<hdop>3</hdop>
<extensions>
<speed>0.6</speed>
</extensions>
</trkpt>
<trkpt lat="60.0850754" lon="-1.3268991">
<ele>-0.49</ele>
<time>2018-08-16T18:42:38Z</time>
<hdop>3</hdop>
</trkpt>
<trkpt lat="60.0850824" lon="-1.3268985">
<ele>0.51</ele>
<time>2018-08-16T18:42:44Z</time>
<hdop>3</hdop>
</trkpt>
<trkpt lat="60.0850828" lon="-1.3268984">
<ele>0.51</ele>
<time>2018-08-16T18:42:49Z</time>
<hdop>3</hdop>
</trkpt>
<trkpt lat="60.0850826" lon="-1.3268984">
<ele>0.51</ele>
<time>2018-08-16T18:42:55Z</time>
<hdop>3</hdop>
</trkpt>
<trkpt lat="60.0850826" lon="-1.3268982">
<ele>0.51</ele>
<time>2018-08-16T18:43:00Z</time>
<hdop>3</hdop>
</trkpt>
<trkpt lat="60.0850825" lon="-1.3268981">
<ele>0.51</ele>
<time>2018-08-16T18:43:05Z</time>
<hdop>3</hdop>
</trkpt>
<trkpt lat="60.0850826" lon="-1.326898">
<ele>0.51</ele>
<time>2018-08-16T18:43:10Z</time>
<hdop>3</hdop>
</trkpt>
<trkpt lat="60.0850825" lon="-1.326898">
<ele>0.51</ele>
<time>2018-08-16T18:43:15Z</time>
<hdop>3</hdop>
</trkpt>
<trkpt lat="60.0850825" lon="-1.326898">
<ele>0.51</ele>
<time>2018-08-16T18:43:20Z</time>
<hdop>3</hdop>
</trkpt>
<trkpt lat="60.0850825" lon="-1.3268981">
<ele>0.51</ele>
<time>2018-08-16T18:43:25Z</time>
<hdop>3</hdop>
</trkpt>
<trkpt lat="60.0850825" lon="-1.326898">
<ele>0.51</ele>
<time>2018-08-16T18:43:31Z</time>
<hdop>3</hdop>
</trkpt>
<trkpt lat="60.0850824" lon="-1.326898">
<ele>0.51</ele>
<time>2018-08-16T18:43:36Z</time>
<hdop>3</hdop>
</trkpt>
<trkpt lat="60.0850824" lon="-1.326898">
<ele>0.51</ele>
<time>2018-08-16T18:43:42Z</time>
<hdop>4</hdop>
</trkpt>
<trkpt lat="60.0850824" lon="-1.326898">
<ele>0.51</ele>
<time>2018-08-16T18:43:48Z</time>
<hdop>4</hdop>
</trkpt>
<trkpt lat="60.0850806" lon="-1.3268966">
<ele>0.51</ele>
<time>2018-08-16T18:43:54Z</time>
<hdop>3</hdop>
</trkpt>
<trkpt lat="60.0850815" lon="-1.3268971">
<ele>0.51</ele>
<time>2018-08-16T18:44:00Z</time>
<hdop>3</hdop>
</trkpt>
<trkpt lat="60.0850818" lon="-1.3268972">
<ele>0.51</ele>
<time>2018-08-16T18:44:05Z</time>
<hdop>3</hdop>
</trkpt>
<trkpt lat="60.0850817" lon="-1.3268971">
<ele>0.51</ele>
<time>2018-08-16T18:44:10Z</time>
<hdop>3</hdop>
</trkpt>
<trkpt lat="60.0850817" lon="-1.326897">
<ele>0.51</ele>
<time>2018-08-16T18:44:16Z</time>
<hdop>3</hdop>
</trkpt>
<trkpt lat="60.0850755" lon="-1.3268865">
<ele>0.51</ele>
<time>2018-08-16T18:44:22Z</time>
<hdop>3</hdop>
<extensions>
<speed>0.19</speed>
</extensions>
</trkpt>
<trkpt lat="60.0850766" lon="-1.3268757">
<ele>0.51</ele>
<time>2018-08-16T18:44:27Z</time>
<hdop>3</hdop>
<extensions>
<speed>0.53</speed>
</extensions>
</trkpt>
<trkpt lat="60.0850866" lon="-1.3268168">
<ele>0.51</ele>
<time>2018-08-16T18:44:33Z</time>
<hdop>3</hdop>
<extensions>
<speed>0.79</speed>
</extensions>
</trkpt>
<trkpt lat="60.0851133" lon="-1.3267564">
<ele>0.51</ele>
<time>2018-08-16T18:44:39Z</time>
<hdop>3</hdop>
</trkpt>
<trkpt lat="60.0851463" lon="-1.3267972">
<ele>-0.49</ele>
<time>2018-08-16T18:44:45Z</time>
<hdop>3</hdop>
<extensions>
<speed>0.72</speed>
</extensions>
</trkpt>
<trkpt lat="60.0851741" lon="-1.3268556">
<ele>0.51</ele>
<time>2018-08-16T18:44:51Z</time>
<hdop>3</hdop>
</trkpt>
<trkpt lat="60.0852162" lon="-1.3268728">
<ele>0.51</ele>
<time>2018-08-16T18:44:56Z</time>
<hdop>3</hdop>
<extensions>
<speed>1.23</speed>
</extensions>
</trkpt>
<trkpt lat="60.0852639" lon="-1.3268432">
<ele>0.51</ele>
<time>2018-08-16T18:45:01Z</time>
<hdop>3</hdop>
<extensions>
<speed>0.19</speed>
</extensions>
</trkpt>
<trkpt lat="60.0853002" lon="-1.3267936">
<ele>1.51</ele>
<time>2018-08-16T18:45:07Z</time>
<hdop>3</hdop>
<extensions>
<speed>0.78</speed>
</extensions>
</trkpt>
<trkpt lat="60.0853294" lon="-1.3266753">
<ele>1.51</ele>
<time>2018-08-16T18:45:13Z</time>
<hdop>3</hdop>
<extensions>
<speed>1.36</speed>
</extensions>
</trkpt>
<trkpt lat="60.085348" lon="-1.3265192">
<ele>1.51</ele>
<time>2018-08-16T18:45:19Z</time>
<hdop>3</hdop>
<extensions>
<speed>1.36</speed>
</extensions>
</trkpt>
<trkpt lat="60.085334" lon="-1.3263452">
<ele>0.51</ele>
<time>2018-08-16T18:45:25Z</time>
<hdop>3</hdop>
<extensions>
<speed>1.55</speed>
</extensions>
</trkpt>
<trkpt lat="60.0853073" lon="-1.3262313">
<ele>1.51</ele>
<time>2018-08-16T18:45:30Z</time>
<hdop>3</hdop>
<extensions>
<speed>1.6</speed>
</extensions>
</trkpt>
<trkpt lat="60.0852644" lon="-1.326104">
<ele>-0.49</ele>
<time>2018-08-16T18:45:36Z</time>
<hdop>3</hdop>
<extensions>
<speed>1.66</speed>
</extensions>
</trkpt>
<trkpt lat="60.0852463" lon="-1.3259334">
<ele>0.51</ele>
<time>2018-08-16T18:45:42Z</time>
<hdop>3</hdop>
<extensions>
<speed>1.72</speed>
</extensions>
</trkpt>
<trkpt lat="60.0852047" lon="-1.3258054">
<ele>0.51</ele>
<time>2018-08-16T18:45:47Z</time>
<hdop>3</hdop>
<extensions>
<speed>1.74</speed>
</extensions>
</trkpt>
<trkpt lat="60.0851823" lon="-1.3256226">
<ele>0.51</ele>
<time>2018-08-16T18:45:53Z</time>
<hdop>3</hdop>
<extensions>
<speed>1.38</speed>
</extensions>
</trkpt>
<trkpt lat="60.0851588" lon="-1.3254428">
<ele>-0.49</ele>
<time>2018-08-16T18:45:59Z</time>
<hdop>3</hdop>
<extensions>
<speed>1.63</speed>
</extensions>
</trkpt>
<trkpt lat="60.0851459" lon="-1.3252735">
<ele>-0.49</ele>
<time>2018-08-16T18:46:05Z</time>
<hdop>3</hdop>
<extensions>
<speed>1.32</speed>
</extensions>
</trkpt>
<trkpt lat="60.0851435" lon="-1.3251025">
<ele>-0.49</ele>
<time>2018-08-16T18:46:11Z</time>
<hdop>3</hdop>
<extensions>
<speed>1.56</speed>
</extensions>
</trkpt>
<trkpt lat="60.0851183" lon="-1.3249185">
<ele>0.51</ele>
<time>2018-08-16T18:46:17Z</time>
<hdop>3</hdop>
<extensions>
<speed>1.95</speed>
</extensions>
</trkpt>
<trkpt lat="60.0851085" lon="-1.3247174">
<ele>-0.49</ele>
<time>2018-08-16T18:46:23Z</time>
<hdop>3</hdop>
<extensions>
<speed>1.87</speed>
</extensions>
</trkpt>
<trkpt lat="60.0851116" lon="-1.3245374">
<ele>0.51</ele>
<time>2018-08-16T18:46:28Z</time>
<hdop>3</hdop>
<extensions>
<speed>1.91</speed>
</extensions>
</trkpt>
<trkpt lat="60.0851272" lon="-1.3243617">
<ele>0.51</ele>
<time>2018-08-16T18:46:33Z</time>
<hdop>3</hdop>
<extensions>
<speed>1.9</speed>
</extensions>
</trkpt>
<trkpt lat="60.0851542" lon="-1.3241728">
<ele>-0.49</ele>
<time>2018-08-16T18:46:39Z</time>
<hdop>3</hdop>
<extensions>
<speed>1.92</speed>
</extensions>
</trkpt>
<trkpt lat="60.0851666" lon="-1.3239738">
<ele>-1.49</ele>
<time>2018-08-16T18:46:45Z</time>
<hdop>3</hdop>
<extensions>
<speed>2.06</speed>
</extensions>
</trkpt>
<trkpt lat="60.085165" lon="-1.3238165">
<ele>-2.49</ele>
<time>2018-08-16T18:46:50Z</time>
<hdop>3</hdop>
<extensions>
<speed>1.63</speed>
</extensions>
</trkpt>
<trkpt lat="60.0851744" lon="-1.3236379">
<ele>-4.49</ele>
<time>2018-08-16T18:46:56Z</time>
<hdop>3</hdop>
<extensions>
<speed>1.83</speed>
</extensions>
</trkpt>
<trkpt lat="60.0851951" lon="-1.3235372">
<ele>-5.49</ele>
<time>2018-08-16T18:47:01Z</time>
<hdop>3</hdop>
<extensions>
<speed>0.98</speed>
</extensions>
</trkpt>
<trkpt lat="60.0852118" lon="-1.3234026">
<ele>-5.49</ele>
<time>2018-08-16T18:47:06Z</time>
<hdop>3</hdop>
<extensions>
<speed>1.64</speed>
</extensions>
</trkpt>
<trkpt lat="60.0852243" lon="-1.323206">
<ele>-3.49</ele>
<time>2018-08-16T18:47:12Z</time>
<hdop>3</hdop>
<extensions>
<speed>1.9</speed>
</extensions>
</trkpt>
<trkpt lat="60.0852268" lon="-1.3229895">
<ele>-5.49</ele>
<time>2018-08-16T18:47:18Z</time>
<hdop>3</hdop>
<extensions>
<speed>1.61</speed>
</extensions>
</trkpt>
<trkpt lat="60.0852464" lon="-1.3228066">
<ele>-2.49</ele>
<time>2018-08-16T18:47:24Z</time>
<hdop>3</hdop>
<extensions>
<speed>1.66</speed>
</extensions>
</trkpt>
<trkpt lat="60.0852562" lon="-1.3226814">
<ele>-2.49</ele>
<time>2018-08-16T18:47:30Z</time>
<hdop>3</hdop>
<extensions>
<speed>0.44</speed>
</extensions>
</trkpt>
<trkpt lat="60.0852684" lon="-1.3225921">
<ele>-1.49</ele>
<time>2018-08-16T18:47:36Z</time>
<hdop>3</hdop>
<extensions>
<speed>0.71</speed>
</extensions>
</trkpt>
<trkpt lat="60.0852684" lon="-1.3225088">
<ele>-0.49</ele>
<time>2018-08-16T18:47:41Z</time>
<hdop>4</hdop>
<extensions>
<speed>0.95</speed>
</extensions>
</trkpt>
<trkpt lat="60.0852705" lon="-1.3224574">
<ele>0.51</ele>
<time>2018-08-16T18:47:47Z</time>
<hdop>3</hdop>
<extensions>
<speed>0.57</speed>
</extensions>
</trkpt>
<trkpt lat="60.0852571" lon="-1.322412">
<ele>-0.49</ele>
<time>2018-08-16T18:47:53Z</time>
<hdop>3</hdop>
<extensions>
<speed>0.61</speed>
</extensions>
</trkpt>
<trkpt lat="60.085251" lon="-1.322373">
<ele>-0.49</ele>
<time>2018-08-16T18:47:59Z</time>
<hdop>3</hdop>
<extensions>